메인 페이지
METAR-TAF:

METAR-TAF

공항 :

몽고메리, 앨라배마, 미국

위도: 32-18-01N, 경도: 086-24-22W, 고도: 67m

현재 날씨관측

예보는 17분 전, 00:53시(UTC)에 발표되었습니다.
북서6kt
온도 11°C
습도 62%
기압 1018 hPa
시정: 16.1km
맑음

METAR: KMGM 170053Z 32006KT 10SM CLR 11/04 A3007 RMK AO2 SLP182 T01060039

시각: 19:10 (01:10 UTC)

예보

예보는 1 시간 30분 전, 23:40시(UTC)에 발표되었습니다.
예보 대상 시간: 17일 00시부터 17일 24시까지 (UTC)
서북서6kt
시정: 10km
맑음
17일 0100시부터 (UTC)
여러 방향의 바람 2kt
시정: 10km
맑음
17일 1700시부터 (UTC)
서북서3kt
시정: 10km
맑음

TAF: KMGM 162340Z 1700/1724 29006KT P6SM SKC FM170100 VRB02KT P6SM SKC FM171700 29003KT P6SM SKC

4,000개 이상의 공항 관측 자료 및 예보 (METAR 및 TAF 보고).

지도상에서 검색 가능한 기상관측소가 노란 점과 빨간 점으로 표시되어 있습니다.

기상관측소 명을 보려면 표시 위로 마우스를 이동하세요.

날씨 관측과 예보를 보려면 클릭하세요.

지도 변경 : 확대하려면 엑스 표시가 있는 녹색 버튼, 축소하려면 빼기 표시가 있는 녹색 버튼, 다음 페이지의 지도를 보려면 녹색 화살표를 클릭하세요.


METAR-TAF: